sensor_id;sensor_type;location;lat;lon;timestamp;P1;durP1;ratioP1;P2;durP2;ratioP2
2622;SDS011;1321;48.690;9.022;2023-04-25T00:00:39;9.30;;;9.00;;
2622;SDS011;1321;48.690;9.022;2023-04-25T00:03:07;9.50;;;9.20;;
2622;SDS011;1321;48.690;9.022;2023-04-25T00:05:37;9.80;;;9.50;;
2622;SDS011;1321;48.690;9.022;2023-04-25T00:08:05;9.47;;;9.23;;
2622;SDS011;1321;48.690;9.022;2023-04-25T00:10:34;9.37;;;9.17;;
2622;SDS011;1321;48.690;9.022;2023-04-25T00:13:02;9.13;;;8.93;;
2622;SDS011;1321;48.690;9.022;2023-04-25T00:15:31;9.70;;;9.30;;
2622;SDS011;1321;48.690;9.022;2023-04-25T00:17:59;9.23;;;9.03;;
2622;SDS011;1321;48.690;9.022;2023-04-25T00:20:27;9.03;;;8.73;;
2622;SDS011;1321;48.690;9.022;2023-04-25T00:22:57;10.27;;;9.90;;
2622;SDS011;1321;48.690;9.022;2023-04-25T00:25:25;9.47;;;9.27;;
2622;SDS011;1321;48.690;9.022;2023-04-25T00:27:54;9.43;;;8.97;;
2622;SDS011;1321;48.690;9.022;2023-04-25T00:30:22;9.60;;;9.30;;
2622;SDS011;1321;48.690;9.022;2023-04-25T00:32:50;9.23;;;8.90;;
2622;SDS011;1321;48.690;9.022;2023-04-25T00:35:18;9.27;;;8.97;;
2622;SDS011;1321;48.690;9.022;2023-04-25T00:37:47;9.20;;;9.00;;
2622;SDS011;1321;48.690;9.022;2023-04-25T00:40:17;9.53;;;9.20;;
2622;SDS011;1321;48.690;9.022;2023-04-25T00:42:45;9.80;;;9.50;;
2622;SDS011;1321;48.690;9.022;2023-04-25T00:45:15;9.97;;;9.67;;
2622;SDS011;1321;48.690;9.022;2023-04-25T00:47:44;9.20;;;8.90;;
2622;SDS011;1321;48.690;9.022;2023-04-25T00:50:13;9.27;;;8.90;;
2622;SDS011;1321;48.690;9.022;2023-04-25T00:52:43;9.30;;;9.00;;
2622;SDS011;1321;48.690;9.022;2023-04-25T00:55:12;9.33;;;9.13;;
2622;SDS011;1321;48.690;9.022;2023-04-25T00:57:43;8.90;;;8.70;;
2622;SDS011;1321;48.690;9.022;2023-04-25T01:00:12;8.93;;;8.73;;
2622;SDS011;1321;48.690;9.022;2023-04-25T01:02:41;9.20;;;8.80;;
2622;SDS011;1321;48.690;9.022;2023-04-25T01:05:09;9.27;;;9.07;;
2622;SDS011;1321;48.690;9.022;2023-04-25T01:07:38;9.67;;;9.37;;
2622;SDS011;1321;48.690;9.022;2023-04-25T01:10:08;9.40;;;9.10;;
2622;SDS011;1321;48.690;9.022;2023-04-25T01:12:36;8.97;;;8.77;;
2622;SDS011;1321;48.690;9.022;2023-04-25T01:15:06;9.30;;;9.00;;
2622;SDS011;1321;48.690;9.022;2023-04-25T01:17:35;9.00;;;8.80;;
2622;SDS011;1321;48.690;9.022;2023-04-25T01:20:04;9.50;;;9.20;;
2622;SDS011;1321;48.690;9.022;2023-04-25T01:22:34;10.60;;;10.00;;
2622;SDS011;1321;48.690;9.022;2023-04-25T01:25:03;9.67;;;9.30;;
2622;SDS011;1321;48.690;9.022;2023-04-25T01:27:32;10.17;;;9.83;;
2622;SDS011;1321;48.690;9.022;2023-04-25T01:30:00;10.20;;;9.80;;
2622;SDS011;1321;48.690;9.022;2023-04-25T01:32:29;9.47;;;9.10;;
2622;SDS011;1321;48.690;9.022;2023-04-25T01:35:05;10.80;;;10.33;;
2622;SDS011;1321;48.690;9.022;2023-04-25T01:37:37;9.77;;;9.37;;
2622;SDS011;1321;48.690;9.022;2023-04-25T01:40:06;9.37;;;9.07;;
2622;SDS011;1321;48.690;9.022;2023-04-25T01:42:36;8.80;;;8.50;;
2622;SDS011;1321;48.690;9.022;2023-04-25T01:45:07;9.00;;;8.80;;
2622;SDS011;1321;48.690;9.022;2023-04-25T01:47:37;9.23;;;9.03;;
2622;SDS011;1321;48.690;9.022;2023-04-25T01:50:08;8.80;;;8.50;;
2622;SDS011;1321;48.690;9.022;2023-04-25T01:52:38;9.47;;;8.87;;
2622;SDS011;1321;48.690;9.022;2023-04-25T01:55:07;8.87;;;8.57;;
2622;SDS011;1321;48.690;9.022;2023-04-25T01:57:36;8.80;;;8.60;;
2622;SDS011;1321;48.690;9.022;2023-04-25T02:00:05;9.10;;;8.80;;
2622;SDS011;1321;48.690;9.022;2023-04-25T02:02:35;9.10;;;8.90;;
2622;SDS011;1321;48.690;9.022;2023-04-25T02:05:03;9.23;;;8.93;;
2622;SDS011;1321;48.690;9.022;2023-04-25T02:07:32;8.80;;;8.60;;
2622;SDS011;1321;48.690;9.022;2023-04-25T02:10:02;9.10;;;8.90;;
2622;SDS011;1321;48.690;9.022;2023-04-25T02:12:30;9.10;;;8.90;;
2622;SDS011;1321;48.690;9.022;2023-04-25T02:14:59;9.13;;;8.93;;
2622;SDS011;1321;48.690;9.022;2023-04-25T02:17:27;9.60;;;9.17;;
2622;SDS011;1321;48.690;9.022;2023-04-25T02:19:55;9.20;;;9.00;;
2622;SDS011;1321;48.690;9.022;2023-04-25T02:22:23;9.80;;;9.50;;
2622;SDS011;1321;48.690;9.022;2023-04-25T02:24:52;9.70;;;9.40;;
2622;SDS011;1321;48.690;9.022;2023-04-25T02:27:22;9.07;;;8.87;;
2622;SDS011;1321;48.690;9.022;2023-04-25T02:29:50;9.37;;;8.97;;
2622;SDS011;1321;48.690;9.022;2023-04-25T02:32:18;9.30;;;9.00;;
2622;SDS011;1321;48.690;9.022;2023-04-25T02:34:47;9.67;;;9.47;;
2622;SDS011;1321;48.690;9.022;2023-04-25T02:37:15;9.57;;;9.17;;
2622;SDS011;1321;48.690;9.022;2023-04-25T02:39:43;9.37;;;9.07;;
2622;SDS011;1321;48.690;9.022;2023-04-25T02:42:11;9.20;;;8.90;;
2622;SDS011;1321;48.690;9.022;2023-04-25T02:44:41;9.90;;;9.60;;
2622;SDS011;1321;48.690;9.022;2023-04-25T02:47:09;9.73;;;9.53;;
2622;SDS011;1321;48.690;9.022;2023-04-25T02:49:37;9.87;;;9.37;;
2622;SDS011;1321;48.690;9.022;2023-04-25T02:52:06;9.53;;;9.23;;
2622;SDS011;1321;48.690;9.022;2023-04-25T02:54:35;9.70;;;9.50;;
2622;SDS011;1321;48.690;9.022;2023-04-25T02:57:03;9.23;;;8.83;;
2622;SDS011;1321;48.690;9.022;2023-04-25T02:59:31;9.57;;;9.17;;
2622;SDS011;1321;48.690;9.022;2023-04-25T03:02:01;9.37;;;8.97;;
2622;SDS011;1321;48.690;9.022;2023-04-25T03:04:29;8.93;;;8.73;;
2622;SDS011;1321;48.690;9.022;2023-04-25T03:06:58;10.60;;;10.30;;
2622;SDS011;1321;48.690;9.022;2023-04-25T03:09:26;9.97;;;9.67;;
2622;SDS011;1321;48.690;9.022;2023-04-25T03:11:55;10.03;;;9.70;;
2622;SDS011;1321;48.690;9.022;2023-04-25T03:14:23;10.10;;;9.80;;
2622;SDS011;1321;48.690;9.022;2023-04-25T03:16:51;10.60;;;10.30;;
2622;SDS011;1321;48.690;9.022;2023-04-25T03:19:21;10.40;;;10.10;;
2622;SDS011;1321;48.690;9.022;2023-04-25T03:21:49;10.90;;;10.50;;
2622;SDS011;1321;48.690;9.022;2023-04-25T03:24:17;10.50;;;10.20;;
2622;SDS011;1321;48.690;9.022;2023-04-25T03:26:46;10.27;;;9.97;;
2622;SDS011;1321;48.690;9.022;2023-04-25T03:29:14;10.67;;;10.37;;
2622;SDS011;1321;48.690;9.022;2023-04-25T03:31:42;10.73;;;10.43;;
2622;SDS011;1321;48.690;9.022;2023-04-25T03:34:10;11.27;;;10.83;;
2622;SDS011;1321;48.690;9.022;2023-04-25T03:36:41;10.80;;;10.50;;
2622;SDS011;1321;48.690;9.022;2023-04-25T03:39:10;11.27;;;10.87;;
2622;SDS011;1321;48.690;9.022;2023-04-25T03:41:38;10.67;;;10.40;;
2622;SDS011;1321;48.690;9.022;2023-04-25T03:44:06;11.00;;;10.70;;
2622;SDS011;1321;48.690;9.022;2023-04-25T03:46:34;11.60;;;11.20;;
2622;SDS011;1321;48.690;9.022;2023-04-25T03:49:02;11.10;;;10.30;;
2622;SDS011;1321;48.690;9.022;2023-04-25T03:51:31;10.40;;;10.10;;
2622;SDS011;1321;48.690;9.022;2023-04-25T03:54:00;10.90;;;10.40;;
2622;SDS011;1321;48.690;9.022;2023-04-25T03:56:29;10.30;;;10.07;;
2622;SDS011;1321;48.690;9.022;2023-04-25T03:58:57;11.10;;;10.70;;
2622;SDS011;1321;48.690;9.022;2023-04-25T04:01:27;10.90;;;10.47;;
2622;SDS011;1321;48.690;9.022;2023-04-25T04:03:56;10.33;;;10.03;;
2622;SDS011;1321;48.690;9.022;2023-04-25T04:06:24;11.43;;;10.97;;
2622;SDS011;1321;48.690;9.022;2023-04-25T04:08:52;11.10;;;10.70;;
2622;SDS011;1321;48.690;9.022;2023-04-25T04:11:23;11.60;;;11.00;;
2622;SDS011;1321;48.690;9.022;2023-04-25T04:13:51;11.17;;;10.83;;
2622;SDS011;1321;48.690;9.022;2023-04-25T04:16:19;11.73;;;11.23;;
2622;SDS011;1321;48.690;9.022;2023-04-25T04:18:47;11.70;;;11.30;;
2622;SDS011;1321;48.690;9.022;2023-04-25T04:21:15;11.90;;;11.50;;
2622;SDS011;1321;48.690;9.022;2023-04-25T04:23:44;13.17;;;12.53;;
2622;SDS011;1321;48.690;9.022;2023-04-25T04:26:12;11.90;;;11.60;;
2622;SDS011;1321;48.690;9.022;2023-04-25T04:28:44;12.70;;;11.90;;
2622;SDS011;1321;48.690;9.022;2023-04-25T04:31:12;11.73;;;11.43;;
2622;SDS011;1321;48.690;9.022;2023-04-25T04:33:43;12.00;;;11.60;;
2622;SDS011;1321;48.690;9.022;2023-04-25T04:36:12;11.97;;;11.67;;
2622;SDS011;1321;48.690;9.022;2023-04-25T04:38:40;12.27;;;11.87;;
2622;SDS011;1321;48.690;9.022;2023-04-25T04:41:08;11.83;;;11.43;;
2622;SDS011;1321;48.690;9.022;2023-04-25T04:43:37;12.53;;;12.03;;
2622;SDS011;1321;48.690;9.022;2023-04-25T04:46:07;13.27;;;12.80;;
2622;SDS011;1321;48.690;9.022;2023-04-25T04:48:36;14.30;;;13.43;;
2622;SDS011;1321;48.690;9.022;2023-04-25T04:51:06;12.40;;;11.90;;
2622;SDS011;1321;48.690;9.022;2023-04-25T04:53:34;12.80;;;12.30;;
2622;SDS011;1321;48.690;9.022;2023-04-25T04:56:03;13.53;;;13.03;;
2622;SDS011;1321;48.690;9.022;2023-04-25T04:58:31;12.50;;;12.00;;
2622;SDS011;1321;48.690;9.022;2023-04-25T05:00:59;12.53;;;12.00;;
2622;SDS011;1321;48.690;9.022;2023-04-25T05:03:29;12.60;;;12.20;;
2622;SDS011;1321;48.690;9.022;2023-04-25T05:05:58;13.07;;;12.37;;
2622;SDS011;1321;48.690;9.022;2023-04-25T05:08:26;12.77;;;12.37;;
2622;SDS011;1321;48.690;9.022;2023-04-25T05:10:54;12.53;;;12.13;;
2622;SDS011;1321;48.690;9.022;2023-04-25T05:13:22;12.90;;;12.40;;
2622;SDS011;1321;48.690;9.022;2023-04-25T05:15:50;12.60;;;12.13;;
2622;SDS011;1321;48.690;9.022;2023-04-25T05:18:20;12.50;;;12.10;;
2622;SDS011;1321;48.690;9.022;2023-04-25T05:20:52;13.33;;;12.80;;
2622;SDS011;1321;48.690;9.022;2023-04-25T05:23:20;12.53;;;12.13;;
2622;SDS011;1321;48.690;9.022;2023-04-25T05:25:55;12.53;;;12.13;;
2622;SDS011;1321;48.690;9.022;2023-04-25T05:28:29;13.43;;;12.93;;
2622;SDS011;1321;48.690;9.022;2023-04-25T05:30:57;14.30;;;13.60;;
2622;SDS011;1321;48.690;9.022;2023-04-25T05:33:25;13.60;;;13.10;;
2622;SDS011;1321;48.690;9.022;2023-04-25T05:35:55;15.30;;;14.60;;
2622;SDS011;1321;48.690;9.022;2023-04-25T05:38:23;13.67;;;13.17;;
2622;SDS011;1321;48.690;9.022;2023-04-25T05:40:51;13.37;;;12.97;;
2622;SDS011;1321;48.690;9.022;2023-04-25T05:43:19;13.70;;;13.10;;
2622;SDS011;1321;48.690;9.022;2023-04-25T05:45:47;13.50;;;13.00;;
2622;SDS011;1321;48.690;9.022;2023-04-25T05:48:16;13.70;;;13.10;;
2622;SDS011;1321;48.690;9.022;2023-04-25T05:50:44;13.53;;;12.90;;
2622;SDS011;1321;48.690;9.022;2023-04-25T05:53:13;13.37;;;12.87;;
2622;SDS011;1321;48.690;9.022;2023-04-25T05:55:41;14.00;;;13.30;;
2622;SDS011;1321;48.690;9.022;2023-04-25T05:58:09;12.93;;;12.43;;
2622;SDS011;1321;48.690;9.022;2023-04-25T06:00:37;13.30;;;12.80;;
2622;SDS011;1321;48.690;9.022;2023-04-25T06:03:08;12.90;;;12.50;;
2622;SDS011;1321;48.690;9.022;2023-04-25T06:05:37;12.83;;;12.43;;
2622;SDS011;1321;48.690;9.022;2023-04-25T06:08:05;12.70;;;12.30;;
2622;SDS011;1321;48.690;9.022;2023-04-25T06:10:34;12.90;;;12.40;;
2622;SDS011;1321;48.690;9.022;2023-04-25T06:13:03;13.30;;;12.70;;
2622;SDS011;1321;48.690;9.022;2023-04-25T06:15:32;13.80;;;13.10;;
2622;SDS011;1321;48.690;9.022;2023-04-25T06:18:01;14.40;;;13.40;;
2622;SDS011;1321;48.690;9.022;2023-04-25T06:20:29;13.80;;;13.30;;
2622;SDS011;1321;48.690;9.022;2023-04-25T06:22:57;14.50;;;13.63;;
2622;SDS011;1321;48.690;9.022;2023-04-25T06:25:25;14.07;;;13.57;;
2622;SDS011;1321;48.690;9.022;2023-04-25T06:27:55;14.97;;;14.27;;
2622;SDS011;1321;48.690;9.022;2023-04-25T06:30:23;13.93;;;13.40;;
2622;SDS011;1321;48.690;9.022;2023-04-25T06:32:52;14.13;;;13.53;;
2622;SDS011;1321;48.690;9.022;2023-04-25T06:35:20;14.57;;;13.97;;
2622;SDS011;1321;48.690;9.022;2023-04-25T06:37:48;14.33;;;13.63;;
2622;SDS011;1321;48.690;9.022;2023-04-25T06:40:16;14.20;;;13.70;;
2622;SDS011;1321;48.690;9.022;2023-04-25T06:42:44;14.37;;;13.80;;
2622;SDS011;1321;48.690;9.022;2023-04-25T06:45:14;14.50;;;13.80;;
2622;SDS011;1321;48.690;9.022;2023-04-25T06:47:42;13.83;;;13.23;;
2622;SDS011;1321;48.690;9.022;2023-04-25T06:50:11;13.40;;;12.90;;
2622;SDS011;1321;48.690;9.022;2023-04-25T06:52:39;13.93;;;13.20;;
2622;SDS011;1321;48.690;9.022;2023-04-25T06:55:07;13.40;;;12.90;;
2622;SDS011;1321;48.690;9.022;2023-04-25T06:57:36;13.13;;;12.63;;
2622;SDS011;1321;48.690;9.022;2023-04-25T07:00:05;13.80;;;13.20;;
2622;SDS011;1321;48.690;9.022;2023-04-25T07:02:37;14.10;;;13.50;;
2622;SDS011;1321;48.690;9.022;2023-04-25T07:05:05;14.80;;;14.10;;
2622;SDS011;1321;48.690;9.022;2023-04-25T07:07:33;13.87;;;13.20;;
2622;SDS011;1321;48.690;9.022;2023-04-25T07:10:02;14.30;;;13.60;;
2622;SDS011;1321;48.690;9.022;2023-04-25T07:12:30;12.77;;;12.37;;
2622;SDS011;1321;48.690;9.022;2023-04-25T07:14:58;13.87;;;13.20;;
2622;SDS011;1321;48.690;9.022;2023-04-25T07:17:32;13.83;;;13.13;;
2622;SDS011;1321;48.690;9.022;2023-04-25T07:20:02;13.63;;;13.13;;
2622;SDS011;1321;48.690;9.022;2023-04-25T07:22:32;14.03;;;13.43;;
2622;SDS011;1321;48.690;9.022;2023-04-25T07:25:00;13.57;;;12.60;;
2622;SDS011;1321;48.690;9.022;2023-04-25T07:27:29;13.13;;;12.77;;
2622;SDS011;1321;48.690;9.022;2023-04-25T07:29:57;13.77;;;13.23;;
2622;SDS011;1321;48.690;9.022;2023-04-25T07:32:25;13.50;;;13.00;;
2622;SDS011;1321;48.690;9.022;2023-04-25T07:34:54;13.67;;;13.17;;
2622;SDS011;1321;48.690;9.022;2023-04-25T07:37:23;14.30;;;13.73;;
2622;SDS011;1321;48.690;9.022;2023-04-25T07:39:52;14.75;;;14.15;;
2622;SDS011;1321;48.690;9.022;2023-04-25T07:42:20;14.67;;;14.07;;
2622;SDS011;1321;48.690;9.022;2023-04-25T07:44:48;13.50;;;13.10;;
2622;SDS011;1321;48.690;9.022;2023-04-25T07:47:18;13.73;;;13.03;;
2622;SDS011;1321;48.690;9.022;2023-04-25T07:49:46;14.70;;;14.00;;
2622;SDS011;1321;48.690;9.022;2023-04-25T07:52:15;14.97;;;14.47;;
2622;SDS011;1321;48.690;9.022;2023-04-25T07:54:44;15.37;;;14.67;;
2622;SDS011;1321;48.690;9.022;2023-04-25T07:57:13;15.10;;;14.57;;
2622;SDS011;1321;48.690;9.022;2023-04-25T07:59:43;14.23;;;13.70;;
2622;SDS011;1321;48.690;9.022;2023-04-25T08:02:11;15.87;;;15.00;;
2622;SDS011;1321;48.690;9.022;2023-04-25T08:04:40;15.30;;;14.70;;
2622;SDS011;1321;48.690;9.022;2023-04-25T08:07:08;14.83;;;14.23;;
2622;SDS011;1321;48.690;9.022;2023-04-25T08:09:37;14.27;;;13.77;;
2622;SDS011;1321;48.690;9.022;2023-04-25T08:12:06;14.27;;;13.57;;
2622;SDS011;1321;48.690;9.022;2023-04-25T08:14:35;15.83;;;15.00;;
2622;SDS011;1321;48.690;9.022;2023-04-25T08:17:03;15.33;;;14.57;;
2622;SDS011;1321;48.690;9.022;2023-04-25T08:19:32;14.60;;;14.10;;
2622;SDS011;1321;48.690;9.022;2023-04-25T08:22:00;14.30;;;13.87;;
2622;SDS011;1321;48.690;9.022;2023-04-25T08:24:28;14.50;;;13.97;;
2622;SDS011;1321;48.690;9.022;2023-04-25T08:26:57;14.23;;;13.73;;
2622;SDS011;1321;48.690;9.022;2023-04-25T08:29:26;14.50;;;14.00;;
2622;SDS011;1321;48.690;9.022;2023-04-25T08:31:54;15.20;;;14.60;;
2622;SDS011;1321;48.690;9.022;2023-04-25T08:34:23;14.20;;;13.70;;
2622;SDS011;1321;48.690;9.022;2023-04-25T08:36:51;14.50;;;13.97;;
2622;SDS011;1321;48.690;9.022;2023-04-25T08:39:20;14.33;;;13.83;;
2622;SDS011;1321;48.690;9.022;2023-04-25T08:41:48;13.80;;;13.20;;
2622;SDS011;1321;48.690;9.022;2023-04-25T08:44:16;14.30;;;13.80;;
2622;SDS011;1321;48.690;9.022;2023-04-25T08:46:46;14.00;;;13.50;;
2622;SDS011;1321;48.690;9.022;2023-04-25T08:49:16;13.87;;;13.37;;
2622;SDS011;1321;48.690;9.022;2023-04-25T08:51:45;14.00;;;13.57;;
2622;SDS011;1321;48.690;9.022;2023-04-25T08:54:14;13.60;;;13.03;;
2622;SDS011;1321;48.690;9.022;2023-04-25T08:57:00;13.77;;;13.27;;
2622;SDS011;1321;48.690;9.022;2023-04-25T08:59:31;14.00;;;13.50;;
2622;SDS011;1321;48.690;9.022;2023-04-25T09:02:04;15.10;;;14.50;;
2622;SDS011;1321;48.690;9.022;2023-04-25T09:04:33;13.70;;;13.30;;
2622;SDS011;1321;48.690;9.022;2023-04-25T09:07:01;14.27;;;13.60;;
2622;SDS011;1321;48.690;9.022;2023-04-25T09:09:30;14.13;;;13.37;;
2622;SDS011;1321;48.690;9.022;2023-04-25T09:11:58;13.80;;;13.30;;
2622;SDS011;1321;48.690;9.022;2023-04-25T09:14:28;14.67;;;14.17;;
2622;SDS011;1321;48.690;9.022;2023-04-25T09:17:00;14.30;;;13.80;;
2622;SDS011;1321;48.690;9.022;2023-04-25T09:19:33;13.37;;;13.00;;
2622;SDS011;1321;48.690;9.022;2023-04-25T09:22:07;14.00;;;13.60;;
2622;SDS011;1321;48.690;9.022;2023-04-25T09:24:36;13.70;;;13.20;;
2622;SDS011;1321;48.690;9.022;2023-04-25T09:27:06;14.03;;;13.53;;
2622;SDS011;1321;48.690;9.022;2023-04-25T09:29:36;13.20;;;12.80;;
2622;SDS011;1321;48.690;9.022;2023-04-25T09:32:13;13.43;;;13.03;;
2622;SDS011;1321;48.690;9.022;2023-04-25T09:34:48;14.40;;;13.90;;
2622;SDS011;1321;48.690;9.022;2023-04-25T09:37:17;14.13;;;13.07;;
2622;SDS011;1321;48.690;9.022;2023-04-25T09:39:47;13.10;;;12.70;;
2622;SDS011;1321;48.690;9.022;2023-04-25T09:42:16;12.53;;;12.13;;
2622;SDS011;1321;48.690;9.022;2023-04-25T09:44:45;12.50;;;12.20;;
2622;SDS011;1321;48.690;9.022;2023-04-25T09:47:14;11.90;;;11.60;;
2622;SDS011;1321;48.690;9.022;2023-04-25T09:49:44;11.80;;;11.40;;
2622;SDS011;1321;48.690;9.022;2023-04-25T09:52:17;11.50;;;11.30;;
2622;SDS011;1321;48.690;9.022;2023-04-25T09:54:47;11.87;;;11.57;;
2622;SDS011;1321;48.690;9.022;2023-04-25T09:57:16;11.20;;;11.00;;
2622;SDS011;1321;48.690;9.022;2023-04-25T09:59:46;11.30;;;11.07;;
2622;SDS011;1321;48.690;9.022;2023-04-25T10:02:16;11.60;;;11.20;;
2622;SDS011;1321;48.690;9.022;2023-04-25T10:04:47;11.13;;;10.80;;
2622;SDS011;1321;48.690;9.022;2023-04-25T10:07:19;11.00;;;10.80;;
2622;SDS011;1321;48.690;9.022;2023-04-25T10:09:54;10.70;;;10.50;;
2622;SDS011;1321;48.690;9.022;2023-04-25T10:12:26;11.33;;;11.03;;
2622;SDS011;1321;48.690;9.022;2023-04-25T10:14:55;11.00;;;10.80;;
2622;SDS011;1321;48.690;9.022;2023-04-25T10:17:23;11.27;;;11.07;;
2622;SDS011;1321;48.690;9.022;2023-04-25T10:19:53;11.40;;;11.20;;
2622;SDS011;1321;48.690;9.022;2023-04-25T10:22:26;11.97;;;11.73;;
2622;SDS011;1321;48.690;9.022;2023-04-25T10:24:58;10.70;;;10.50;;
2622;SDS011;1321;48.690;9.022;2023-04-25T10:27:30;11.00;;;10.70;;
2622;SDS011;1321;48.690;9.022;2023-04-25T10:30:02;10.80;;;10.60;;
2622;SDS011;1321;48.690;9.022;2023-04-25T10:32:32;10.63;;;10.43;;
2622;SDS011;1321;48.690;9.022;2023-04-25T10:35:10;10.70;;;10.50;;
2622;SDS011;1321;48.690;9.022;2023-04-25T10:40:27;10.73;;;10.53;;
2622;SDS011;1321;48.690;9.022;2023-04-25T10:42:56;10.80;;;10.60;;
2622;SDS011;1321;48.690;9.022;2023-04-25T10:46:12;11.17;;;10.97;;
2622;SDS011;1321;48.690;9.022;2023-04-25T10:48:46;10.83;;;10.63;;
2622;SDS011;1321;48.690;9.022;2023-04-25T10:51:16;10.73;;;10.53;;
2622;SDS011;1321;48.690;9.022;2023-04-25T10:53:59;10.83;;;10.63;;
2622;SDS011;1321;48.690;9.022;2023-04-25T10:56:29;10.77;;;10.47;;
2622;SDS011;1321;48.690;9.022;2023-04-25T10:59:05;11.20;;;11.00;;
2622;SDS011;1321;48.690;9.022;2023-04-25T11:01:37;10.77;;;10.57;;
2622;SDS011;1321;48.690;9.022;2023-04-25T11:04:06;10.73;;;10.50;;
2622;SDS011;1321;48.690;9.022;2023-04-25T11:06:53;11.40;;;11.00;;
2622;SDS011;1321;48.690;9.022;2023-04-25T11:09:35;10.90;;;10.70;;
2622;SDS011;1321;48.690;9.022;2023-04-25T11:12:07;11.17;;;10.97;;
2622;SDS011;1321;48.690;9.022;2023-04-25T11:14:36;11.30;;;11.10;;
2622;SDS011;1321;48.690;9.022;2023-04-25T11:17:09;10.97;;;10.70;;
2622;SDS011;1321;48.690;9.022;2023-04-25T11:19:38;11.03;;;10.83;;
2622;SDS011;1321;48.690;9.022;2023-04-25T11:22:06;11.10;;;10.83;;
2622;SDS011;1321;48.690;9.022;2023-04-25T11:24:36;10.77;;;10.57;;
2622;SDS011;1321;48.690;9.022;2023-04-25T11:27:04;10.50;;;10.30;;
2622;SDS011;1321;48.690;9.022;2023-04-25T11:29:33;10.70;;;10.50;;
2622;SDS011;1321;48.690;9.022;2023-04-25T11:32:02;10.80;;;10.60;;
2622;SDS011;1321;48.690;9.022;2023-04-25T11:34:31;12.83;;;12.50;;
2622;SDS011;1321;48.690;9.022;2023-04-25T11:37:00;12.40;;;12.00;;
2622;SDS011;1321;48.690;9.022;2023-04-25T11:39:30;12.40;;;11.97;;
2622;SDS011;1321;48.690;9.022;2023-04-25T11:42:00;12.53;;;12.13;;
2622;SDS011;1321;48.690;9.022;2023-04-25T11:44:31;12.57;;;12.27;;
2622;SDS011;1321;48.690;9.022;2023-04-25T11:46:59;12.60;;;12.30;;
2622;SDS011;1321;48.690;9.022;2023-04-25T11:49:30;12.77;;;12.47;;
2622;SDS011;1321;48.690;9.022;2023-04-25T11:51:58;12.80;;;12.50;;
2622;SDS011;1321;48.690;9.022;2023-04-25T11:54:26;13.73;;;13.30;;
2622;SDS011;1321;48.690;9.022;2023-04-25T11:56:54;12.43;;;12.13;;
2622;SDS011;1321;48.690;9.022;2023-04-25T11:59:24;12.60;;;12.27;;
2622;SDS011;1321;48.690;9.022;2023-04-25T12:01:54;12.63;;;12.33;;
2622;SDS011;1321;48.690;9.022;2023-04-25T12:04:24;12.47;;;12.17;;
2622;SDS011;1321;48.690;9.022;2023-04-25T12:06:53;12.70;;;12.40;;
2622;SDS011;1321;48.690;9.022;2023-04-25T12:09:27;12.33;;;12.03;;
2622;SDS011;1321;48.690;9.022;2023-04-25T12:11:58;12.80;;;12.50;;
2622;SDS011;1321;48.690;9.022;2023-04-25T12:14:32;12.83;;;12.53;;
2622;SDS011;1321;48.690;9.022;2023-04-25T12:17:03;12.63;;;12.33;;
2622;SDS011;1321;48.690;9.022;2023-04-25T12:19:35;13.33;;;12.93;;
2622;SDS011;1321;48.690;9.022;2023-04-25T12:22:18;14.20;;;13.80;;
2622;SDS011;1321;48.690;9.022;2023-04-25T12:24:49;14.00;;;13.60;;
2622;SDS011;1321;48.690;9.022;2023-04-25T12:27:19;13.50;;;13.10;;
2622;SDS011;1321;48.690;9.022;2023-04-25T12:29:52;13.53;;;13.13;;
2622;SDS011;1321;48.690;9.022;2023-04-25T12:32:22;14.50;;;14.00;;
2622;SDS011;1321;48.690;9.022;2023-04-25T12:34:50;14.40;;;13.90;;
2622;SDS011;1321;48.690;9.022;2023-04-25T12:37:18;14.93;;;14.33;;
2622;SDS011;1321;48.690;9.022;2023-04-25T12:39:47;15.07;;;14.50;;
2622;SDS011;1321;48.690;9.022;2023-04-25T12:42:15;14.87;;;14.27;;
2622;SDS011;1321;48.690;9.022;2023-04-25T12:44:44;15.10;;;14.50;;
2622;SDS011;1321;48.690;9.022;2023-04-25T12:47:14;15.00;;;14.40;;
2622;SDS011;1321;48.690;9.022;2023-04-25T12:49:42;14.53;;;14.03;;
2622;SDS011;1321;48.690;9.022;2023-04-25T12:52:10;14.63;;;14.13;;
2622;SDS011;1321;48.690;9.022;2023-04-25T12:54:38;15.10;;;14.50;;
2622;SDS011;1321;48.690;9.022;2023-04-25T12:57:06;15.70;;;14.93;;
2622;SDS011;1321;48.690;9.022;2023-04-25T12:59:35;15.60;;;15.00;;
2622;SDS011;1321;48.690;9.022;2023-04-25T13:02:03;16.00;;;15.30;;
2622;SDS011;1321;48.690;9.022;2023-04-25T13:04:32;15.23;;;14.63;;
2622;SDS011;1321;48.690;9.022;2023-04-25T13:07:01;16.00;;;15.30;;
2622;SDS011;1321;48.690;9.022;2023-04-25T13:09:29;17.13;;;16.37;;
2622;SDS011;1321;48.690;9.022;2023-04-25T13:11:57;16.73;;;15.93;;
2622;SDS011;1321;48.690;9.022;2023-04-25T13:14:26;17.37;;;16.57;;
2622;SDS011;1321;48.690;9.022;2023-04-25T13:16:54;16.60;;;15.90;;
2622;SDS011;1321;48.690;9.022;2023-04-25T13:19:22;18.07;;;17.27;;
2622;SDS011;1321;48.690;9.022;2023-04-25T13:21:53;17.30;;;16.40;;
2622;SDS011;1321;48.690;9.022;2023-04-25T13:24:21;17.00;;;16.20;;
2622;SDS011;1321;48.690;9.022;2023-04-25T13:26:49;17.50;;;16.70;;
2622;SDS011;1321;48.690;9.022;2023-04-25T13:29:18;17.90;;;17.00;;
2622;SDS011;1321;48.690;9.022;2023-04-25T13:31:46;17.73;;;16.47;;
2622;SDS011;1321;48.690;9.022;2023-04-25T13:34:14;18.03;;;17.23;;
2622;SDS011;1321;48.690;9.022;2023-04-25T13:36:42;18.17;;;17.17;;
2622;SDS011;1321;48.690;9.022;2023-04-25T13:39:12;17.00;;;16.20;;
2622;SDS011;1321;48.690;9.022;2023-04-25T13:41:40;16.73;;;15.93;;
2622;SDS011;1321;48.690;9.022;2023-04-25T13:44:09;17.80;;;17.00;;
2622;SDS011;1321;48.690;9.022;2023-04-25T13:46:37;16.57;;;15.90;;
2622;SDS011;1321;48.690;9.022;2023-04-25T13:49:13;17.83;;;16.80;;
2622;SDS011;1321;48.690;9.022;2023-04-25T13:51:41;16.23;;;15.53;;
2622;SDS011;1321;48.690;9.022;2023-04-25T13:54:09;17.30;;;16.50;;
2622;SDS011;1321;48.690;9.022;2023-04-25T13:56:39;16.63;;;15.60;;
2622;SDS011;1321;48.690;9.022;2023-04-25T13:59:08;17.03;;;16.13;;
2622;SDS011;1321;48.690;9.022;2023-04-25T14:01:37;17.70;;;16.80;;
2622;SDS011;1321;48.690;9.022;2023-04-25T14:04:06;18.27;;;17.23;;
2622;SDS011;1321;48.690;9.022;2023-04-25T14:06:34;17.80;;;17.00;;
2622;SDS011;1321;48.690;9.022;2023-04-25T14:09:02;18.10;;;17.00;;
2622;SDS011;1321;48.690;9.022;2023-04-25T14:11:34;18.43;;;17.50;;
2622;SDS011;1321;48.690;9.022;2023-04-25T14:14:02;17.07;;;16.17;;
2622;SDS011;1321;48.690;9.022;2023-04-25T14:16:30;17.47;;;16.57;;
2622;SDS011;1321;48.690;9.022;2023-04-25T14:18:59;18.03;;;17.13;;
2622;SDS011;1321;48.690;9.022;2023-04-25T14:21:30;18.23;;;17.30;;
2622;SDS011;1321;48.690;9.022;2023-04-25T14:23:59;15.70;;;15.10;;
2622;SDS011;1321;48.690;9.022;2023-04-25T14:26:30;16.30;;;15.30;;
2622;SDS011;1321;48.690;9.022;2023-04-25T14:29:00;15.70;;;15.10;;
2622;SDS011;1321;48.690;9.022;2023-04-25T14:31:28;16.73;;;16.03;;
2622;SDS011;1321;48.690;9.022;2023-04-25T14:33:57;16.47;;;15.77;;
2622;SDS011;1321;48.690;9.022;2023-04-25T14:36:26;16.50;;;15.70;;
2622;SDS011;1321;48.690;9.022;2023-04-25T14:38:57;15.80;;;15.20;;
2622;SDS011;1321;48.690;9.022;2023-04-25T14:41:26;17.00;;;16.20;;
2622;SDS011;1321;48.690;9.022;2023-04-25T14:43:54;17.67;;;16.87;;
2622;SDS011;1321;48.690;9.022;2023-04-25T14:46:24;15.70;;;15.10;;
2622;SDS011;1321;48.690;9.022;2023-04-25T14:48:53;16.23;;;15.57;;
2622;SDS011;1321;48.690;9.022;2023-04-25T14:51:22;15.47;;;14.87;;
2622;SDS011;1321;48.690;9.022;2023-04-25T14:53:50;15.43;;;14.73;;
2622;SDS011;1321;48.690;9.022;2023-04-25T14:56:19;15.50;;;14.90;;
2622;SDS011;1321;48.690;9.022;2023-04-25T14:58:47;15.93;;;15.33;;
2622;SDS011;1321;48.690;9.022;2023-04-25T15:01:16;14.80;;;14.40;;
2622;SDS011;1321;48.690;9.022;2023-04-25T15:03:48;14.70;;;14.20;;
2622;SDS011;1321;48.690;9.022;2023-04-25T15:06:18;15.27;;;14.70;;
2622;SDS011;1321;48.690;9.022;2023-04-25T15:08:46;15.70;;;15.10;;